LTBA/IST METAR and TAF weather

Enter ICAO airport designator
Station Type Date Time Source
LTBA METAR 2020/09/27 02:50 UTC NOAA

LTBA 270250Z 23010KT CAVOK 22/19 Q1007 NOSIG


Station Type Date Time Source
LTBA Decoded METAR 2020/09/27 02:50 UTC NOAA

Istanbul / Ataturk, Turkey (LTBA) 40-58N 028-49E 37M
Sep 26, 2020 - 10:50 PM EDT / 2020.09.27 0250 UTC
Wind: from the SW (230 degrees) at 12 MPH (10 KT):0
Visibility: greater than 7 mile(s):0
Temperature: 71 F (22 C)
Dew Point: 66 F (19 C)
Relative Humidity: 83%
Pressure (altimeter): 29.74 in. Hg (1007 hPa)
ob: LTBA 270250Z 23010KT CAVOK 22/19 Q1007 NOSIG
cycle: 3

Station Type Date Time Source
LTBA TAF 2020/09/26 18:03 UTC NOAA

TAF LTBA 261640Z 2618/2724 24010KT CAVOK
BECMG 2618/2621 23015G35KT
TEMPO 2622/2702 -SHRA FEW025CB BKN030 BKN080
BECMG 2706/2709 23012KT
BECMG 2713/2716 VRB02KT

Example: see airport list